Time;durP1;ratioP1;P1;durP2;ratioP2;P2;SDS_P1;SDS_P2;PMS_P1;PMS_P2;Temp;Humidity;BMP_temperature;BMP_pressure;BME280_temperature;BME280_humidity;BME280_pressure;Samples;Min_cycle;Max_cycle;Signal;HPM_P1;HPM_P2
2022/08/10 00:04:48;;;;;;;;;;;;;;;18.88;94.88;101613.50;10066490;29;19928;-74
2022/08/10 00:09:52;;;;;;;;;;;;;;;18.85;94.75;101624.09;10066352;29;20257;-72
2022/08/10 00:14:55;;;;;;;;;;;;;;;18.88;95.06;101623.19;10066182;29;19928;-75
2022/08/10 00:19:58;;;;;;;;;;;;;;;18.89;95.19;101625.78;10066177;29;19928;-73
2022/08/10 00:25:11;;;;;;;;;;;;;;;18.88;95.15;101626.66;10065677;29;19939;-75
2022/08/10 00:30:14;;;;;;;;;;;;;;;18.81;96.04;101617.19;10066070;29;19928;-70
2022/08/10 00:35:17;;;;;;;;;;;;;;;18.77;95.91;101619.94;10065530;29;20045;-73
2022/08/10 00:40:21;;;;;;;;;;;;;;;18.84;95.77;101618.88;10065349;29;19940;-73
2022/08/10 00:45:39;;;;;;;;;;;;;;;18.80;96.44;101622.47;10064205;29;20262;-71
2022/08/10 00:50:42;;;;;;;;;;;;;;;18.78;96.38;101626.91;10065585;29;19935;-72
2022/08/10 00:55:46;;;;;;;;;;;;;;;18.77;96.05;101628.69;10064627;29;20339;-70
2022/08/10 01:01:09;;;;;;;;;;;;;;;18.71;96.33;101620.06;10064747;29;19946;-72
2022/08/10 01:06:39;;;;;;;;;;;;;;;18.72;96.27;101629.69;10064354;29;19928;-74
2022/08/10 01:11:49;;;;;;;;;;;;;;;18.65;96.41;101628.09;10064061;29;19928;-71
2022/08/10 01:17:14;;;;;;;;;;;;;;;18.65;96.62;101628.97;10063658;29;20349;-71
2022/08/10 01:22:28;;;;;;;;;;;;;;;18.62;96.35;101630.81;10063684;29;19932;-72
2022/08/10 01:27:35;;;;;;;;;;;;;;;18.53;96.38;101631.00;10063728;29;19938;-73
2022/08/10 01:32:44;;;;;;;;;;;;;;;18.51;96.28;101641.56;10063423;29;19978;-70
2022/08/10 01:37:50;;;;;;;;;;;;;;;18.38;96.41;101635.66;10063279;29;20258;-72
2022/08/10 01:42:55;;;;;;;;;;;;;;;18.35;96.58;101640.13;10063195;29;19963;-71
2022/08/10 01:48:30;;;;;;;;;;;;;;;18.30;97.10;101637.59;10062871;29;19928;-73
2022/08/10 01:53:35;;;;;;;;;;;;;;;18.32;96.45;101632.31;10062945;29;19928;-75
2022/08/10 01:58:43;;;;;;;;;;;;;;;18.26;97.40;101633.31;10062682;29;19928;-72
2022/08/10 02:03:49;;;;;;;;;;;;;;;18.19;97.55;101638.72;10062438;29;19927;-73
2022/08/10 02:09:08;;;;;;;;;;;;;;;18.17;97.85;101645.78;10062290;29;20385;-76
2022/08/10 02:14:13;;;;;;;;;;;;;;;18.13;97.66;101637.09;10062087;29;20242;-72
2022/08/10 02:19:19;;;;;;;;;;;;;;;18.12;97.53;101642.38;10062298;29;19938;-74
2022/08/10 02:24:24;;;;;;;;;;;;;;;18.12;97.71;101640.59;10061904;29;19938;-72
2022/08/10 02:29:28;;;;;;;;;;;;;;;18.02;98.19;101640.81;10061843;29;19939;-72
2022/08/10 02:34:33;;;;;;;;;;;;;;;18.04;98.43;101650.41;10062051;29;19935;-71
2022/08/10 02:39:37;;;;;;;;;;;;;;;18.02;98.67;101653.97;10061751;29;19939;-71
2022/08/10 02:44:43;;;;;;;;;;;;;;;17.95;99.14;101652.34;10060200;29;19928;-73
2022/08/10 02:50:12;;;;;;;;;;;;;;;17.91;99.05;101656.78;10061929;29;20347;-71
2022/08/10 02:55:26;;;;;;;;;;;;;;;17.88;99.42;101648.09;10060814;29;19928;-72
2022/08/10 03:00:36;;;;;;;;;;;;;;;17.86;99.80;101653.38;10059772;29;20023;-71
2022/08/10 03:05:41;;;;;;;;;;;;;;;17.81;99.66;101650.00;10059741;29;19951;-71
2022/08/10 03:10:45;;;;;;;;;;;;;;;17.86;98.93;101660.44;10066298;29;19928;-74
2022/08/10 03:15:50;;;;;;;;;;;;;;;17.79;99.68;101659.66;10066129;29;19928;-71
2022/08/10 03:20:55;;;;;;;;;;;;;;;17.75;99.98;101651.88;10066243;29;20333;-71
2022/08/10 03:25:59;;;;;;;;;;;;;;;17.76;100.00;101662.34;10065741;29;19932;-73
2022/08/10 03:31:03;;;;;;;;;;;;;;;17.70;100.00;101658.97;10065648;29;20022;-73
2022/08/10 03:36:08;;;;;;;;;;;;;;;17.62;100.00;101659.09;10065511;29;19927;-68
2022/08/10 03:41:34;;;;;;;;;;;;;;;17.69;100.00;101663.34;10000086;29;1909906;-70
2022/08/10 03:46:40;;;;;;;;;;;;;;;17.71;100.00;101663.31;10067891;29;19928;-70
2022/08/10 03:51:47;;;;;;;;;;;;;;;17.59;100.00;101672.28;10067266;29;19934;-73
2022/08/10 03:56:51;;;;;;;;;;;;;;;17.58;100.00;101680.19;10067530;29;19928;-71
2022/08/10 04:01:54;;;;;;;;;;;;;;;17.64;100.00;101680.94;10066772;29;19938;-72
2022/08/10 04:07:19;;;;;;;;;;;;;;;17.63;100.00;101681.84;10066461;29;19950;-72
2022/08/10 04:12:22;;;;;;;;;;;;;;;17.58;100.00;101675.81;10066438;29;20262;-71
2022/08/10 04:17:25;;;;;;;;;;;;;;;17.61;100.00;101685.38;10066838;29;19938;-71
2022/08/10 04:22:51;;;;;;;;;;;;;;;17.57;100.00;101689.81;10065715;29;19960;-74
2022/08/10 04:27:55;;;;;;;;;;;;;;;17.66;100.00;101689.66;10065724;29;20273;-72
2022/08/10 04:32:59;;;;;;;;;;;;;;;17.65;100.00;101693.19;10065635;29;19935;-75
2022/08/10 04:38:04;;;;;;;;;;;;;;;17.67;100.00;101691.38;10065559;29;19928;-70
2022/08/10 04:43:07;;;;;;;;;;;;;;;17.61;100.00;101694.13;10065124;29;20250;-75
2022/08/10 04:48:15;;;;;;;;;;;;;;;17.71;100.00;101693.06;10065524;29;19938;-74
2022/08/10 04:53:39;;;;;;;;;;;;;;;17.76;100.00;101700.88;10064853;29;19939;-72
2022/08/10 04:59:02;;;;;;;;;;;;;;;17.79;100.00;101706.09;10064592;29;19928;-71
2022/08/10 05:04:05;;;;;;;;;;;;;;;17.83;100.00;101707.75;10064193;29;20238;-72
2022/08/10 05:09:30;;;;;;;;;;;;;;;17.92;100.00;101711.09;10064401;29;19928;-73
2022/08/10 05:14:33;;;;;;;;;;;;;;;17.97;100.00;101714.50;10064348;29;19928;-71
2022/08/10 05:19:35;;;;;;;;;;;;;;;18.07;100.00;101702.91;10064035;29;19928;-70
2022/08/10 05:25:00;;;;;;;;;;;;;;;18.09;100.00;101703.75;10064027;29;19939;-76
2022/08/10 05:30:03;;;;;;;;;;;;;;;18.15;100.00;101708.03;10063069;29;19950;-71
2022/08/10 05:35:06;;;;;;;;;;;;;;;18.24;100.00;101710.47;10063256;29;19938;-74
2022/08/10 05:40:11;;;;;;;;;;;;;;;18.33;100.00;101716.41;10063317;29;20389;-74
2022/08/10 05:45:18;;;;;;;;;;;;;;;18.34;100.00;101714.66;10062911;29;19938;-75
2022/08/10 05:50:29;;;;;;;;;;;;;;;18.42;100.00;101715.38;9577952;29;10000720;-67
2022/08/10 05:55:34;;;;;;;;;;;;;;;18.42;100.00;101708.38;10033876;29;19932;-65
2022/08/10 06:00:37;;;;;;;;;;;;;;;18.50;100.00;101712.59;10082282;29;19928;-65
2022/08/10 06:05:53;;;;;;;;;;;;;;;18.47;100.00;101710.88;10055006;29;20351;-68
2022/08/10 06:10:59;;;;;;;;;;;;;;;18.56;100.00;101710.69;10059346;29;20586;-73
2022/08/10 06:16:24;;;;;;;;;;;;;;;18.70;100.00;101708.66;10058667;29;19932;-73
2022/08/10 06:21:28;;;;;;;;;;;;;;;18.83;100.00;101711.84;10059083;29;19938;-75
2022/08/10 06:26:32;;;;;;;;;;;;;;;18.94;100.00;101713.38;10058402;29;19988;-73
2022/08/10 06:31:37;;;;;;;;;;;;;;;18.86;100.00;101712.66;10058532;29;19928;-70
2022/08/10 06:36:51;;;;;;;;;;;;;;;18.99;100.00;101716.75;10058650;29;20341;-71
2022/08/10 06:41:59;;;;;;;;;;;;;;;19.00;100.00;101713.22;10061159;29;20355;-72
2022/08/10 06:47:20;;;;;;;;;;;;;;;19.09;100.00;101713.00;10065930;29;19928;-77
2022/08/10 06:52:25;;;;;;;;;;;;;;;19.21;100.00;101702.19;10049694;29;19929;-77
2022/08/10 06:57:30;;;;;;;;;;;;;;;19.30;100.00;101702.00;10043036;29;19954;-77
2022/08/10 07:02:36;;;;;;;;;;;;;;;19.39;100.00;101693.88;10065756;29;19942;-75
2022/08/10 07:07:42;;;;;;;;;;;;;;;19.46;100.00;101700.72;10065769;29;19932;-77
2022/08/10 07:12:48;;;;;;;;;;;;;;;19.47;100.00;101701.56;10065712;29;19932;-75
2022/08/10 07:17:52;;;;;;;;;;;;;;;19.52;100.00;101700.56;10064866;29;19939;-76
2022/08/10 07:22:55;;;;;;;;;;;;;;;19.67;100.00;101699.31;10064994;29;19935;-76
2022/08/10 07:28:21;;;;;;;;;;;;;;;19.74;100.00;101700.88;10064231;29;19936;-75
2022/08/10 07:33:24;;;;;;;;;;;;;;;19.81;100.00;101694.53;10064664;29;19938;-79
2022/08/10 07:38:30;;;;;;;;;;;;;;;19.93;99.03;101693.34;10064589;29;19940;-73
2022/08/10 07:43:36;;;;;;;;;;;;;;;19.98;98.06;101697.59;10064081;29;19928;-75
2022/08/10 07:48:42;;;;;;;;;;;;;;;20.02;96.93;101696.59;10063885;29;19932;-74
2022/08/10 07:53:46;;;;;;;;;;;;;;;20.13;96.26;101709.47;10064009;29;20429;-73
2022/08/10 07:58:53;;;;;;;;;;;;;;;20.26;95.69;101705.63;10063724;29;19947;-76
2022/08/10 08:03:59;;;;;;;;;;;;;;;20.50;93.61;101705.78;10063706;29;19928;-74
2022/08/10 08:09:13;;;;;;;;;;;;;;;20.73;92.39;101691.91;10063645;29;20422;-76
2022/08/10 08:14:19;;;;;;;;;;;;;;;20.95;91.51;101694.75;10063258;29;20390;-75
2022/08/10 08:19:22;;;;;;;;;;;;;;;21.03;89.11;101691.00;10062621;29;20362;-77
2022/08/10 08:24:31;;;;;;;;;;;;;;;21.09;87.64;101676.72;10062467;29;19938;-77
2022/08/10 08:29:40;;;;;;;;;;;;;;;21.20;85.73;101679.88;10062250;29;19946;-75
2022/08/10 08:34:44;;;;;;;;;;;;;;;21.45;84.20;101673.72;10062724;29;19954;-76
2022/08/10 08:39:47;;;;;;;;;;;;;;;21.59;84.24;101667.97;10062139;29;19928;-78
2022/08/10 08:45:00;;;;;;;;;;;;;;;21.78;83.30;101671.72;10061714;29;19936;-76
2022/08/10 08:50:07;;;;;;;;;;;;;;;21.76;83.16;101655.06;10061601;29;20366;-77
2022/08/10 08:55:27;;;;;;;;;;;;;;;21.89;82.48;101666.06;10024210;29;19936;-76
2022/08/10 09:00:55;;;;;;;;;;;;;;;22.06;80.92;101661.91;10049563;29;19943;-76
2022/08/10 09:06:04;;;;;;;;;;;;;;;22.06;80.56;101663.66;10060731;29;19939;-75
2022/08/10 09:11:12;;;;;;;;;;;;;;;22.12;80.37;101656.41;10060638;29;19928;-76
2022/08/10 09:16:24;;;;;;;;;;;;;;;22.15;79.60;101656.28;10060692;29;19948;-75
2022/08/10 09:21:30;;;;;;;;;;;;;;;22.31;78.05;101649.50;10060217;29;19932;-75
2022/08/10 09:26:37;;;;;;;;;;;;;;;22.20;77.58;101654.31;10060828;29;19928;-74
2022/08/10 09:31:43;;;;;;;;;;;;;;;22.50;77.04;101644.38;10060068;29;20403;-74
2022/08/10 09:37:13;;;;;;;;;;;;;;;22.76;77.46;101645.09;10060384;29;20015;-76
2022/08/10 09:42:21;;;;;;;;;;;;;;;22.89;76.49;101648.97;10059673;29;19932;-74
2022/08/10 09:47:32;;;;;;;;;;;;;;;23.01;75.31;101637.03;10059520;29;19939;-76
2022/08/10 09:53:04;;;;;;;;;;;;;;;23.07;75.11;101647.38;10039067;29;19938;-71
2022/08/10 09:58:19;;;;;;;;;;;;;;;23.91;75.91;101632.25;10021155;29;19968;-72
2022/08/10 10:03:29;;;;;;;;;;;;;;;33.86;45.84;101588.97;9710304;29;10000309;-73
2022/08/10 10:08:37;;;;;;;;;;;;;;;37.25;37.58;101582.47;10022327;29;19928;-74
2022/08/10 10:13:51;;;;;;;;;;;;;;;34.45;41.07;101589.09;10020858;29;20267;-70
2022/08/10 10:19:16;;;;;;;;;;;;;;;29.39;50.95;101597.44;10024429;29;19928;-71
2022/08/10 10:24:21;;;;;;;;;;;;;;;27.13;57.01;101602.16;10058742;29;19942;-74
2022/08/10 10:29:29;;;;;;;;;;;;;;;27.14;57.90;101603.00;10058473;29;19995;-73
2022/08/10 10:34:59;;;;;;;;;;;;;;;27.41;57.21;101600.53;10058537;29;20027;-74
2022/08/10 10:40:03;;;;;;;;;;;;;;;27.50;57.64;101599.97;10058334;29;19943;-74
2022/08/10 10:45:16;;;;;;;;;;;;;;;26.66;56.23;101595.16;10058158;29;20030;-72
2022/08/10 10:50:24;;;;;;;;;;;;;;;26.74;55.77;101593.81;10058321;29;19943;-71
2022/08/10 10:55:29;;;;;;;;;;;;;;;27.02;55.57;101583.28;10058121;29;19988;-72
2022/08/10 11:00:36;;;;;;;;;;;;;;;27.30;55.21;101567.38;10058163;29;19928;-71
2022/08/10 11:05:45;;;;;;;;;;;;;;;27.90;54.68;101557.41;10057933;29;19928;-72
2022/08/10 11:10:51;;;;;;;;;;;;;;;28.01;52.64;101554.13;10057809;29;19928;-72
2022/08/10 11:15:59;;;;;;;;;;;;;;;27.49;53.01;101545.75;10057966;29;19991;-70
2022/08/10 11:21:10;;;;;;;;;;;;;;;26.64;54.72;101555.28;10057628;29;20015;-72
2022/08/10 11:26:18;;;;;;;;;;;;;;;25.90;54.12;101554.09;10057936;29;19934;-71
2022/08/10 11:31:24;;;;;;;;;;;;;;;25.55;55.99;101555.16;10064067;29;19929;-72
2022/08/10 11:36:31;;;;;;;;;;;;;;;26.17;54.67;101542.00;10064333;29;19928;-74
2022/08/10 11:41:41;;;;;;;;;;;;;;;27.03;53.76;101549.47;10064363;29;20273;-72
2022/08/10 11:47:06;;;;;;;;;;;;;;;27.63;51.87;101544.94;10064511;29;19934;-71
2022/08/10 11:52:14;;;;;;;;;;;;;;;27.13;54.29;101546.16;10067283;29;20329;-67
2022/08/10 11:57:18;;;;;;;;;;;;;;;26.53;55.34;101546.19;10066978;29;19958;-71
2022/08/10 12:02:25;;;;;;;;;;;;;;;25.96;55.53;101537.81;10067164;29;19928;-71
2022/08/10 12:07:30;;;;;;;;;;;;;;;26.01;54.83;101537.56;10066652;29;19932;-66
2022/08/10 12:12:55;;;;;;;;;;;;;;;27.01;52.76;101524.69;10065973;29;19939;-68
2022/08/10 12:18:00;;;;;;;;;;;;;;;27.58;51.90;101520.34;10066159;29;19942;-70
2022/08/10 12:23:11;;;;;;;;;;;;;;;28.14;50.55;101513.19;10065497;29;19938;-68
2022/08/10 12:28:17;;;;;;;;;;;;;;;27.53;51.14;101506.41;10065633;29;19938;-68
2022/08/10 12:33:22;;;;;;;;;;;;;;;26.89;52.57;101512.97;10065257;29;19932;-69
2022/08/10 12:38:31;;;;;;;;;;;;;;;26.61;52.82;101510.16;10064485;29;19950;-66
2022/08/10 12:43:36;;;;;;;;;;;;;;;26.27;52.83;101501.53;10064985;29;20251;-67
2022/08/10 12:49:02;;;;;;;;;;;;;;;25.96;54.64;101499.69;10064878;29;19938;-68
2022/08/10 12:54:10;;;;;;;;;;;;;;;25.71;54.59;101502.00;10064427;29;19928;-70
2022/08/10 12:59:13;;;;;;;;;;;;;;;25.57;55.41;101497.44;10064648;29;19929;-70
2022/08/10 13:04:17;;;;;;;;;;;;;;;25.49;54.94;101490.81;10064305;29;19928;-67
2022/08/10 13:09:28;;;;;;;;;;;;;;;25.65;53.52;101491.69;10064351;29;19928;-70
2022/08/10 13:14:32;;;;;;;;;;;;;;;26.14;53.46;101478.25;10063708;29;20273;-67
2022/08/10 13:19:36;;;;;;;;;;;;;;;27.24;50.74;101473.53;10063875;29;19928;-69
2022/08/10 13:25:01;;;;;;;;;;;;;;;28.47;47.40;101461.16;10063362;29;19938;-68
2022/08/10 13:30:06;;;;;;;;;;;;;;;28.04;48.13;101453.28;10063590;29;19938;-67
2022/08/10 13:35:14;;;;;;;;;;;;;;;27.71;49.17;101459.91;10063203;29;20015;-71
2022/08/10 13:40:20;;;;;;;;;;;;;;;26.77;51.46;101481.72;10063054;29;19928;-69
2022/08/10 13:45:25;;;;;;;;;;;;;;;26.42;52.23;101464.22;10062519;29;19928;-69
2022/08/10 13:50:28;;;;;;;;;;;;;;;26.06;54.34;101466.34;10062543;29;20351;-67
2022/08/10 13:55:43;;;;;;;;;;;;;;;25.82;54.69;101463.22;10062102;29;19928;-71
2022/08/10 14:00:58;;;;;;;;;;;;;;;26.31;53.11;101458.69;10062420;29;19992;-69
2022/08/10 14:06:04;;;;;;;;;;;;;;;26.57;51.81;101455.38;10061899;29;19929;-69
2022/08/10 14:11:11;;;;;;;;;;;;;;;26.49;51.74;101452.28;10062747;29;19928;-67
2022/08/10 14:16:15;;;;;;;;;;;;;;;26.15;52.05;101450.72;10061758;29;19938;-66
2022/08/10 14:21:18;;;;;;;;;;;;;;;25.79;52.87;101447.44;10061843;29;19954;-68
2022/08/10 14:26:24;;;;;;;;;;;;;;;25.53;53.92;101457.78;10061523;29;19928;-67
2022/08/10 14:31:29;;;;;;;;;;;;;;;25.31;54.89;101454.53;10061755;29;20291;-68
2022/08/10 14:36:40;;;;;;;;;;;;;;;25.12;55.02;101459.97;10061439;29;19991;-69
2022/08/10 14:41:46;;;;;;;;;;;;;;;24.96;55.95;101470.53;10060702;29;19928;-68
2022/08/10 14:47:10;;;;;;;;;;;;;;;24.83;56.29;101463.28;10061346;29;19928;-70
2022/08/10 14:52:37;;;;;;;;;;;;;;;24.68;56.95;101464.88;10060923;29;20544;-67
2022/08/10 14:57:48;;;;;;;;;;;;;;;24.64;58.58;101457.97;10061559;29;19928;-66
2022/08/10 15:03:14;;;;;;;;;;;;;;;24.56;58.74;101457.53;10063531;29;20016;-71
2022/08/10 15:08:40;;;;;;;;;;;;;;;24.55;59.87;101460.25;10068801;29;19942;-68
2022/08/10 15:13:50;;;;;;;;;;;;;;;24.56;59.61;101448.69;10068414;29;19938;-69
2022/08/10 15:19:14;;;;;;;;;;;;;;;24.47;58.96;101444.69;10076106;29;19929;-67
2022/08/10 15:30:00;;;;;;;;;;;;;;;24.37;61.22;101443.44;10067980;29;19928;-72
2022/08/10 15:40:30;;;;;;;;;;;;;;;24.17;61.50;101435.63;10067751;29;20303;-68
2022/08/10 15:45:49;;;;;;;;;;;;;;;24.14;60.92;101434.91;10086466;29;19944;-70
2022/08/10 15:50:57;;;;;;;;;;;;;;;24.13;61.02;101430.50;9392805;29;10000755;-71
2022/08/10 15:56:05;;;;;;;;;;;;;;;24.08;60.68;101437.84;10064385;29;20310;-71
2022/08/10 16:01:11;;;;;;;;;;;;;;;24.04;60.15;101433.63;10063781;29;19935;-70
2022/08/10 16:06:39;;;;;;;;;;;;;;;24.03;61.38;101432.78;10064627;29;19971;-73
2022/08/10 16:11:42;;;;;;;;;;;;;;;23.95;60.69;101433.09;10065049;29;20240;-74
2022/08/10 16:16:48;;;;;;;;;;;;;;;23.89;61.91;101436.06;10065151;29;19942;-74
2022/08/10 16:21:56;;;;;;;;;;;;;;;23.81;63.73;101426.75;10065276;29;20303;-76
2022/08/10 16:27:06;;;;;;;;;;;;;;;23.71;62.92;101428.13;10064397;29;19938;-73
2022/08/10 16:32:11;;;;;;;;;;;;;;;23.63;62.95;101427.59;10063918;29;20285;-74
2022/08/10 16:37:15;;;;;;;;;;;;;;;23.52;62.68;101429.91;10068065;29;19928;-75
2022/08/10 16:42:21;;;;;;;;;;;;;;;23.46;63.47;101427.53;10065002;29;20270;-69
2022/08/10 16:47:27;;;;;;;;;;;;;;;23.40;63.46;101425.16;10063738;29;19928;-68
2022/08/10 16:52:32;;;;;;;;;;;;;;;23.35;64.25;101421.88;10064357;29;20359;-67
2022/08/10 16:57:37;;;;;;;;;;;;;;;23.31;63.30;101431.75;10064688;29;20240;-69
2022/08/10 17:02:48;;;;;;;;;;;;;;;23.23;62.95;101431.19;10064792;29;19928;-69
2022/08/10 17:07:51;;;;;;;;;;;;;;;23.16;64.10;101424.44;10064850;29;19944;-70
2022/08/10 17:12:56;;;;;;;;;;;;;;;23.10;64.45;101427.38;10064170;29;20358;-68
2022/08/10 17:18:02;;;;;;;;;;;;;;;23.08;65.37;101423.94;10064271;29;19938;-71
2022/08/10 17:23:07;;;;;;;;;;;;;;;23.05;65.43;101433.81;10063844;29;19939;-68
2022/08/10 17:28:11;;;;;;;;;;;;;;;22.98;65.99;101433.22;10062002;29;19928;-69
2022/08/10 17:33:19;;;;;;;;;;;;;;;22.93;66.18;101432.56;10062439;29;19928;-69
2022/08/10 17:38:23;;;;;;;;;;;;;;;22.89;65.20;101439.78;10063219;29;20170;-69
2022/08/10 17:43:29;;;;;;;;;;;;;;;22.85;64.63;101432.03;10062960;29;20015;-68
2022/08/10 17:48:54;;;;;;;;;;;;;;;22.79;65.05;101438.47;10062832;29;19963;-70
2022/08/10 17:53:58;;;;;;;;;;;;;;;22.71;65.09;101440.56;9390574;29;10000739;-70
2022/08/10 17:59:04;;;;;;;;;;;;;;;22.63;65.69;101444.47;10059341;29;19928;-70
2022/08/10 18:04:20;;;;;;;;;;;;;;;22.54;64.99;101442.19;10059218;29;19938;-70
2022/08/10 18:09:29;;;;;;;;;;;;;;;22.44;65.62;101449.63;10059467;29;19938;-70
2022/08/10 18:14:33;;;;;;;;;;;;;;;22.32;65.95;101459.84;10058883;29;19937;-67
2022/08/10 18:19:40;;;;;;;;;;;;;;;22.23;66.08;101468.16;10059531;29;19938;-69
2022/08/10 18:24:43;;;;;;;;;;;;;;;22.18;66.36;101463.06;10058817;29;19958;-73
2022/08/10 18:29:48;;;;;;;;;;;;;;;22.11;67.04;101466.88;10058881;29;19929;-72
2022/08/10 18:34:58;;;;;;;;;;;;;;;22.04;68.30;101470.69;10058558;29;19932;-70
2022/08/10 18:40:02;;;;;;;;;;;;;;;21.96;67.98;101466.63;10065787;29;19928;-72
2022/08/10 18:45:07;;;;;;;;;;;;;;;21.89;69.02;101473.94;10066240;29;20016;-72
2022/08/10 18:50:13;;;;;;;;;;;;;;;21.79;70.06;101475.22;10066652;29;19939;-71
2022/08/10 18:55:19;;;;;;;;;;;;;;;21.72;70.60;101471.91;10066115;29;19958;-74
2022/08/10 19:00:31;;;;;;;;;;;;;;;21.65;72.16;101486.28;10065872;29;19928;-73
2022/08/10 19:05:50;;;;;;;;;;;;;;;21.58;72.60;101478.63;10065820;29;19928;-71
2022/08/10 19:10:57;;;;;;;;;;;;;;;21.48;73.61;101487.81;10065417;29;19936;-72
2022/08/10 19:16:03;;;;;;;;;;;;;;;21.45;72.60;101494.06;10065271;29;19989;-71
2022/08/10 19:21:13;;;;;;;;;;;;;;;21.45;71.91;101498.50;10065520;29;19928;-72
2022/08/10 19:26:23;;;;;;;;;;;;;;;21.40;71.76;101490.72;10064912;29;19938;-72
2022/08/10 19:31:49;;;;;;;;;;;;;;;21.39;71.29;101499.59;10064735;29;19932;-75
2022/08/10 19:37:00;;;;;;;;;;;;;;;21.33;71.66;101498.94;10064578;29;20374;-72
2022/08/10 19:42:07;;;;;;;;;;;;;;;21.27;71.26;101496.50;10064432;29;20244;-70
2022/08/10 19:47:19;;;;;;;;;;;;;;;21.21;72.56;101494.09;10064380;29;19932;-74
2022/08/10 19:52:29;;;;;;;;;;;;;;;21.16;72.55;101496.91;10063914;29;19932;-74
2022/08/10 19:57:35;;;;;;;;;;;;;;;21.05;73.45;101504.34;10063881;29;19939;-75
2022/08/10 20:02:43;;;;;;;;;;;;;;;20.95;74.09;101497.59;10063796;29;19940;-73
2022/08/10 20:07:50;;;;;;;;;;;;;;;20.91;74.39;101509.19;10063454;29;19932;-72
2022/08/10 20:12:59;;;;;;;;;;;;;;;20.86;74.06;101503.22;10063385;29;19942;-72
2022/08/10 20:18:06;;;;;;;;;;;;;;;20.82;75.19;101500.72;10071754;29;20030;-71
2022/08/10 20:23:17;;;;;;;;;;;;;;;20.79;75.66;101498.19;10101430;29;19927;-72
2022/08/10 20:28:24;;;;;;;;;;;;;;;20.64;76.26;101494.28;10101252;29;20434;-69
2022/08/10 20:33:37;;;;;;;;;;;;;;;20.59;76.01;101501.47;10101000;29;20027;-68
2022/08/10 20:38:45;;;;;;;;;;;;;;;20.51;75.88;101501.75;10100876;29;19928;-69
2022/08/10 20:43:56;;;;;;;;;;;;;;;20.52;76.81;101497.31;10100658;29;20362;-70
2022/08/10 20:49:01;;;;;;;;;;;;;;;20.43;77.21;101495.00;10100847;29;20637;-70
2022/08/10 20:54:07;;;;;;;;;;;;;;;20.47;77.52;101502.75;10083452;29;19938;-73
2022/08/10 20:59:17;;;;;;;;;;;;;;;20.38;78.65;101500.41;10061487;29;19928;-70
2022/08/10 21:04:35;;;;;;;;;;;;;;;20.36;78.67;101499.59;10061305;29;19928;-71
2022/08/10 21:09:49;;;;;;;;;;;;;;;20.23;79.30;101485.06;10061286;29;19928;-69
2022/08/10 21:14:55;;;;;;;;;;;;;;;20.21;79.79;101480.75;10061510;29;19947;-73
2022/08/10 21:20:05;;;;;;;;;;;;;;;20.16;79.77;101491.47;10060992;29;19928;-72
2022/08/10 21:25:14;;;;;;;;;;;;;;;20.08;79.50;101496.06;10060959;29;20259;-71
2022/08/10 22:51:46;;;;;;;;;;;;;;;19.30;82.35;101466.81;10020435;29;19929;-68
2022/08/10 23:02:11;;;;;;;;;;;;;;;19.22;83.84;101476.66;10058771;29;19928;-70
2022/08/10 23:07:21;;;;;;;;;;;;;;;19.24;83.45;101482.75;10060726;29;20359;-71
2022/08/10 23:12:27;;;;;;;;;;;;;;;19.31;83.12;101479.06;10061160;29;19943;-71
2022/08/10 23:23:06;;;;;;;;;;;;;;;19.19;83.04;101476.75;10061755;29;20236;-71
2022/08/10 23:28:14;;;;;;;;;;;;;;;19.18;82.79;101482.91;10068474;29;19927;-71
2022/08/10 23:33:25;;;;;;;;;;;;;;;19.17;82.92;101481.19;10068548;29;19935;-72
2022/08/10 23:38:41;;;;;;;;;;;;;;;19.17;82.04;101479.41;10067937;29;20373;-70
2022/08/10 23:43:45;;;;;;;;;;;;;;;19.09;82.41;101480.50;10067745;29;20033;-70
2022/08/10 23:49:06;;;;;;;;;;;;;;;19.10;82.04;101474.38;10067779;29;19943;-71
2022/08/10 23:54:13;;;;;;;;;;;;;;;19.10;81.48;101472.56;10067377;29;20262;-75
2022/08/10 23:59:19;;;;;;;;;;;;;;;19.13;80.85;101471.63;10067443;29;20384;-72
